Time;durP1;ratioP1;P1;durP2;ratioP2;P2;SDS_P1;SDS_P2;PMS_P1;PMS_P2;Temp;Humidity;BMP_temperature;BMP_pressure;BME280_temperature;BME280_humidity;BME280_pressure;Samples;Min_cycle;Max_cycle;Signal;HPM_P1;HPM_P2
2022/04/06 00:00:31;;;;;;;36.28;14.35;;;7.90;99.90;;;;;;5066642;28;21208;-68
2022/04/06 00:02:58;;;;;;;41.75;15.05;;;7.90;99.90;;;;;;5068009;28;20514;-67
2022/04/06 00:05:24;;;;;;;33.95;14.15;;;8.00;99.90;;;;;;5063274;28;20037;-68
2022/04/06 00:07:49;;;;;;;47.83;14.32;;;8.00;99.90;;;;;;5066084;28;20043;-68
2022/04/06 00:10:15;;;;;;;39.35;14.50;;;8.00;99.90;;;;;;5067240;28;20125;-69
2022/04/06 00:12:41;;;;;;;39.80;14.05;;;8.00;99.90;;;;;;5043663;28;20044;-67
2022/04/06 00:15:09;;;;;;;34.90;13.40;;;8.00;99.90;;;;;;5094219;27;20471;-66
2022/04/06 00:17:36;;;;;;;43.00;13.73;;;7.90;99.90;;;;;;5090192;27;20095;-68
2022/04/06 00:20:02;;;;;;;45.03;14.95;;;8.00;99.90;;;;;;5101996;27;20036;-69
2022/04/06 00:22:28;;;;;;;35.00;13.63;;;8.00;99.90;;;;;;5072185;28;20043;-69
2022/04/06 00:24:53;;;;;;;38.65;12.77;;;8.00;99.90;;;;;;5076907;28;20089;-69
2022/04/06 00:27:19;;;;;;;39.72;13.38;;;7.90;99.90;;;;;;5060010;28;20041;-68
2022/04/06 00:29:45;;;;;;;37.17;13.15;;;8.00;99.90;;;;;;5060815;28;20048;-68
2022/04/06 00:32:10;;;;;;;30.67;11.98;;;7.90;99.90;;;;;;5057226;28;20072;-68
2022/04/06 00:37:20;;;;;;;35.78;12.30;;;7.90;99.90;;;;;;5052472;28;20597;-69
2022/04/06 00:39:45;;;;;;;39.97;12.77;;;8.00;99.90;;;;;;5056289;28;20032;-68
2022/04/06 00:42:11;;;;;;;32.30;13.07;;;8.00;99.90;;;;;;5054895;28;20050;-68
2022/04/06 00:44:38;;;;;;;35.33;13.63;;;7.90;99.90;;;;;;5058002;28;20029;-69
2022/04/06 00:47:04;;;;;;;40.38;13.75;;;8.00;99.90;;;;;;5057000;28;20475;-69
2022/04/06 00:49:31;;;;;;;31.92;13.02;;;8.00;99.90;;;;;;5057282;28;20503;-71
2022/04/06 00:51:59;;;;;;;34.75;12.88;;;8.00;99.90;;;;;;5061272;28;20392;-68
2022/04/06 00:54:25;;;;;;;29.40;13.65;;;8.00;99.90;;;;;;5053430;28;20033;-67
2022/04/06 00:56:50;;;;;;;34.92;13.95;;;8.00;99.90;;;;;;5056931;28;20448;-67
2022/04/06 00:59:17;;;;;;;32.15;13.80;;;8.00;99.90;;;;;;5040478;28;20032;-68
2022/04/06 01:01:47;;;;;;;37.25;15.32;;;8.00;99.90;;;;;;5053579;28;20118;-67
2022/04/06 01:04:15;;;;;;;40.90;15.93;;;8.00;99.90;;;;;;5019631;28;20040;-68
2022/04/06 01:06:41;;;;;;;35.63;15.98;;;8.00;99.90;;;;;;5057158;28;20060;-67
2022/04/06 01:09:07;;;;;;;39.20;15.48;;;8.10;99.90;;;;;;5054789;28;20082;-69
2022/04/06 01:11:33;;;;;;;36.55;15.70;;;8.00;99.90;;;;;;5051373;28;20128;-67
2022/04/06 01:13:58;;;;;;;37.30;16.52;;;8.10;99.90;;;;;;5055575;28;20041;-68
2022/04/06 01:16:24;;;;;;;38.95;15.40;;;8.10;99.90;;;;;;5046168;28;20040;-67
2022/04/06 01:18:50;;;;;;;35.53;16.20;;;8.10;99.90;;;;;;5057586;28;20032;-68
2022/04/06 01:21:16;;;;;;;37.85;15.57;;;8.00;99.90;;;;;;5054819;28;20054;-68
2022/04/06 01:23:42;;;;;;;33.05;15.50;;;8.00;99.90;;;;;;5050721;28;20062;-69
2022/04/06 01:26:09;;;;;;;37.33;14.75;;;8.00;99.90;;;;;;5055953;28;20633;-69
2022/04/06 01:28:36;;;;;;;37.13;15.20;;;8.00;99.90;;;;;;5065404;28;20045;-68
2022/04/06 01:31:02;;;;;;;35.35;14.57;;;8.10;99.90;;;;;;5081188;28;20047;-67
2022/04/06 01:33:28;;;;;;;35.30;14.48;;;8.00;99.90;;;;;;5085117;28;20023;-69
2022/04/06 01:35:58;;;;;;;36.92;14.80;;;8.00;99.90;;;;;;5121146;28;20044;-67
2022/04/06 01:38:25;;;;;;;32.97;14.10;;;8.00;99.90;;;;;;5083177;28;20085;-68
2022/04/06 01:40:54;;;;;;;30.08;13.13;;;8.00;99.90;;;;;;5090731;28;20122;-68
2022/04/06 01:43:20;;;;;;;31.42;13.38;;;8.00;99.90;;;;;;5086455;28;20337;-68
2022/04/06 01:45:46;;;;;;;27.33;12.07;;;8.00;99.90;;;;;;5089208;28;20035;-70
2022/04/06 01:48:16;;;;;;;30.17;11.73;;;8.00;99.90;;;;;;5090001;28;20509;-67
2022/04/06 01:53:27;;;;;;;31.27;11.73;;;8.00;99.90;;;;;;5076269;28;20074;-68
2022/04/06 01:55:54;;;;;;;32.45;12.60;;;8.00;99.90;;;;;;5076942;28;20031;-68
2022/04/06 01:58:20;;;;;;;35.30;13.25;;;8.00;99.90;;;;;;5084364;28;20458;-68
2022/04/06 02:00:46;;;;;;;31.05;12.98;;;8.00;99.90;;;;;;5062717;28;20101;-68
2022/04/06 02:03:12;;;;;;;24.52;11.35;;;8.00;99.90;;;;;;5116860;27;20268;-67
2022/04/06 02:05:37;;;;;;;30.60;10.52;;;8.00;99.90;;;;;;5082090;28;20134;-68
2022/04/06 02:08:03;;;;;;;28.65;11.40;;;8.10;99.90;;;;;;5079806;28;20067;-68
2022/04/06 02:10:29;;;;;;;23.83;10.70;;;8.00;99.90;;;;;;5066165;27;21979;-68
2022/04/06 02:12:57;;;;;;;27.00;10.35;;;8.00;99.90;;;;;;5079855;28;20128;-68
2022/04/06 02:15:23;;;;;;;25.25;10.60;;;8.00;99.90;;;;;;5079714;28;20059;-68
2022/04/06 02:17:49;;;;;;;26.08;10.43;;;8.10;99.90;;;;;;5099505;28;20028;-68
2022/04/06 02:20:14;;;;;;;26.17;10.05;;;8.10;99.90;;;;;;5087349;28;20035;-66
2022/04/06 02:22:41;;;;;;;21.08;9.18;;;8.10;99.90;;;;;;5080896;27;20119;-68
2022/04/06 02:25:07;;;;;;;20.17;8.60;;;8.10;99.90;;;;;;5081774;28;20035;-67
2022/04/06 02:27:33;;;;;;;19.55;8.77;;;8.10;99.90;;;;;;5084496;28;20035;-66
2022/04/06 02:29:58;;;;;;;23.05;9.27;;;8.20;99.90;;;;;;5082735;28;20090;-68
2022/04/06 02:32:24;;;;;;;23.52;8.55;;;8.10;99.90;;;;;;5101331;28;20036;-67
2022/04/06 02:34:50;;;;;;;16.42;8.85;;;8.10;99.90;;;;;;5081882;27;20553;-68
2022/04/06 02:37:15;;;;;;;20.33;8.13;;;8.10;99.90;;;;;;5115127;27;20032;-67
2022/04/06 02:39:41;;;;;;;16.02;7.18;;;8.10;99.90;;;;;;5078923;27;20042;-67
2022/04/06 02:42:07;;;;;;;18.92;7.75;;;8.10;99.90;;;;;;5079719;28;22188;-67
2022/04/06 02:44:33;;;;;;;20.65;7.78;;;8.10;99.90;;;;;;5064346;28;20035;-67
2022/04/06 02:46:58;;;;;;;20.63;7.82;;;8.20;99.90;;;;;;5081167;28;20047;-68
2022/04/06 02:49:24;;;;;;;19.10;7.18;;;8.10;99.90;;;;;;5091300;28;20047;-66
2022/04/06 02:51:49;;;;;;;21.33;7.32;;;8.20;99.90;;;;;;5093674;28;20043;-68
2022/04/06 02:54:15;;;;;;;20.70;7.97;;;8.20;99.90;;;;;;5100871;28;20497;-68
2022/04/06 02:56:40;;;;;;;23.55;7.47;;;8.10;99.90;;;;;;5092818;27;20152;-68
2022/04/06 02:59:06;;;;;;;18.10;7.60;;;8.10;99.90;;;;;;5081418;28;20713;-66
2022/04/06 03:01:32;;;;;;;22.17;6.88;;;8.10;99.90;;;;;;5095887;28;20051;-67
2022/04/06 03:03:57;;;;;;;22.42;6.63;;;8.10;99.90;;;;;;5088994;27;20044;-67
2022/04/06 03:06:23;;;;;;;14.10;6.90;;;8.00;99.90;;;;;;5085586;27;20411;-68
2022/04/06 03:08:48;;;;;;;17.83;6.72;;;8.10;99.90;;;;;;5097178;27;20032;-68
2022/04/06 03:11:14;;;;;;;20.73;7.05;;;8.10;99.90;;;;;;5080335;28;20035;-68
2022/04/06 03:13:40;;;;;;;19.33;6.55;;;8.10;99.90;;;;;;5076348;27;20062;-66
2022/04/06 03:16:06;;;;;;;19.83;7.47;;;8.10;99.90;;;;;;5078321;28;20080;-66
2022/04/06 03:18:32;;;;;;;18.23;6.82;;;8.10;99.90;;;;;;5081465;28;20368;-67
2022/04/06 03:20:57;;;;;;;19.02;8.23;;;8.20;99.90;;;;;;5113003;27;20051;-67
2022/04/06 03:23:23;;;;;;;22.00;7.82;;;8.20;99.90;;;;;;5086569;28;20070;-67
2022/04/06 03:25:48;;;;;;;13.48;6.72;;;8.20;99.90;;;;;;5081212;28;20036;-67
2022/04/06 03:28:14;;;;;;;20.75;7.90;;;8.40;99.90;;;;;;5080086;28;20040;-66
2022/04/06 03:30:40;;;;;;;26.13;9.07;;;8.40;99.90;;;;;;5070510;27;20491;-68
2022/04/06 03:33:08;;;;;;;26.15;8.90;;;8.40;99.90;;;;;;5080012;28;20100;-67
2022/04/06 03:35:37;;;;;;;26.35;8.75;;;8.40;99.90;;;;;;5083828;28;20571;-67
2022/04/06 03:38:03;;;;;;;24.85;8.25;;;8.40;99.90;;;;;;5082736;28;20043;-67
2022/04/06 03:40:28;;;;;;;25.27;8.02;;;8.40;99.90;;;;;;5084942;28;20494;-67
2022/04/06 03:42:55;;;;;;;23.63;8.90;;;8.40;99.90;;;;;;5078072;27;20126;-67
2022/04/06 03:45:21;;;;;;;26.30;8.40;;;8.50;99.90;;;;;;5063899;27;20413;-70
2022/04/06 03:47:47;;;;;;;30.90;8.95;;;8.50;99.90;;;;;;5078797;28;20044;-66
2022/04/06 03:50:13;;;;;;;36.67;9.77;;;8.50;99.90;;;;;;5087544;28;20109;-67
2022/04/06 03:52:39;;;;;;;30.52;9.10;;;8.50;99.90;;;;;;5080956;28;20100;-67
2022/04/06 03:55:07;;;;;;;24.80;8.80;;;8.60;99.90;;;;;;5111461;27;20110;-66
2022/04/06 03:57:33;;;;;;;27.88;8.85;;;8.50;99.90;;;;;;5079764;28;20138;-66
2022/04/06 03:59:58;;;;;;;21.60;9.25;;;8.50;99.90;;;;;;5105543;27;20067;-67
2022/04/06 04:02:24;;;;;;;26.65;9.30;;;8.60;99.90;;;;;;5096763;28;20375;-67
2022/04/06 04:04:49;;;;;;;25.13;9.57;;;8.50;99.90;;;;;;5086264;28;20040;-67
2022/04/06 04:07:22;;;;;;;30.42;10.05;;;8.50;99.90;;;;;;5123167;27;20032;-67
2022/04/06 04:09:49;;;;;;;26.00;10.48;;;8.60;99.90;;;;;;5090207;27;20115;-66
2022/04/06 04:12:15;;;;;;;32.15;10.30;;;8.60;99.90;;;;;;5087559;27;20078;-66
2022/04/06 04:14:40;;;;;;;22.95;10.95;;;8.60;99.90;;;;;;5088953;28;20115;-67
2022/04/06 04:17:06;;;;;;;35.28;11.50;;;8.60;99.90;;;;;;5087436;28;20077;-66
2022/04/06 04:19:32;;;;;;;30.33;10.88;;;8.60;99.90;;;;;;5090477;28;20307;-67
2022/04/06 04:21:58;;;;;;;32.47;12.07;;;8.60;99.90;;;;;;5089980;28;20059;-67
2022/04/06 04:24:23;;;;;;;33.28;11.60;;;8.60;99.90;;;;;;5077461;28;20043;-67
2022/04/06 04:26:49;;;;;;;26.90;11.38;;;8.70;99.90;;;;;;5096047;27;20031;-66
2022/04/06 04:29:14;;;;;;;26.15;10.60;;;8.60;99.90;;;;;;5080645;28;20410;-66
2022/04/06 04:31:40;;;;;;;25.98;10.13;;;8.70;99.90;;;;;;5080975;28;20038;-68
2022/04/06 04:34:06;;;;;;;29.10;11.05;;;8.80;99.90;;;;;;5060529;28;20051;-67
2022/04/06 04:36:32;;;;;;;29.42;10.70;;;8.80;99.90;;;;;;5082198;27;20063;-66
2022/04/06 04:38:57;;;;;;;29.13;11.02;;;8.70;99.90;;;;;;5077384;28;20036;-66
2022/04/06 04:41:23;;;;;;;29.48;10.95;;;8.70;99.90;;;;;;5063781;28;20383;-67
2022/04/06 04:43:50;;;;;;;27.75;10.40;;;8.60;99.90;;;;;;5078254;28;20063;-67
2022/04/06 04:46:17;;;;;;;29.75;10.93;;;8.50;99.90;;;;;;5095752;28;20108;-68
2022/04/06 04:48:43;;;;;;;31.75;10.93;;;8.50;99.90;;;;;;5090299;28;20082;-68
2022/04/06 04:51:08;;;;;;;26.83;10.35;;;8.30;99.90;;;;;;5080124;28;20067;-67
2022/04/06 04:53:34;;;;;;;24.35;10.27;;;8.30;99.90;;;;;;5079790;28;20066;-68
2022/04/06 04:56:00;;;;;;;26.70;9.70;;;8.30;99.90;;;;;;5095200;27;20044;-68
2022/04/06 04:58:27;;;;;;;22.83;9.63;;;8.30;99.90;;;;;;5087688;27;20035;-67
2022/04/06 05:00:54;;;;;;;24.13;9.05;;;8.20;99.90;;;;;;5082348;28;20479;-67
2022/04/06 05:03:20;;;;;;;26.42;9.88;;;8.20;99.90;;;;;;5078279;28;20040;-67
2022/04/06 05:05:48;;;;;;;23.05;9.70;;;8.10;99.90;;;;;;5085412;28;20036;-67
2022/04/06 05:08:14;;;;;;;27.23;9.98;;;8.10;99.90;;;;;;5076633;27;20059;-68
2022/04/06 05:10:39;;;;;;;24.65;7.97;;;8.10;99.90;;;;;;5075416;28;20181;-68
2022/04/06 05:13:05;;;;;;;23.67;8.32;;;8.10;99.90;;;;;;5110216;27;20044;-66
2022/04/06 05:15:31;;;;;;;18.65;7.90;;;8.00;99.90;;;;;;5104744;27;20050;-67
2022/04/06 05:17:56;;;;;;;26.58;8.38;;;7.90;99.90;;;;;;5090885;28;20047;-66
2022/04/06 05:20:22;;;;;;;25.38;8.85;;;7.90;99.90;;;;;;5089065;27;20040;-67
2022/04/06 05:22:48;;;;;;;24.20;8.10;;;7.80;99.90;;;;;;5086931;28;20031;-67
2022/04/06 05:25:13;;;;;;;23.25;6.95;;;7.80;99.90;;;;;;5088035;28;20046;-67
2022/04/06 05:27:51;;;;;;;25.05;6.63;;;7.80;99.90;;;;;;5082437;28;20455;-67
2022/04/06 05:30:18;;;;;;;16.23;5.97;;;7.70;99.90;;;;;;5090338;28;20144;-66
2022/04/06 05:32:46;;;;;;;23.70;6.65;;;7.70;99.90;;;;;;5081340;28;20069;-67
2022/04/06 05:35:12;;;;;;;24.98;6.65;;;7.70;99.90;;;;;;5071556;28;20032;-67
2022/04/06 05:37:39;;;;;;;21.15;6.10;;;7.70;99.90;;;;;;5075905;28;20186;-67
2022/04/06 05:40:06;;;;;;;18.05;5.88;;;7.70;99.90;;;;;;5076956;28;20122;-68
2022/04/06 05:42:32;;;;;;;18.33;5.43;;;7.70;99.90;;;;;;5093892;28;20024;-67
2022/04/06 05:44:57;;;;;;;19.80;5.78;;;7.70;99.90;;;;;;5092893;28;20098;-67
2022/04/06 05:47:23;;;;;;;22.35;5.82;;;7.70;99.90;;;;;;5093615;28;20035;-67
2022/04/06 05:49:49;;;;;;;13.95;6.22;;;7.70;99.90;;;;;;5092699;28;20046;-67
2022/04/06 05:52:14;;;;;;;19.95;5.82;;;7.70;99.90;;;;;;5092629;28;20028;-68
2022/04/06 05:54:40;;;;;;;14.00;5.40;;;7.70;99.90;;;;;;5125144;27;20116;-67
2022/04/06 05:57:06;;;;;;;17.23;6.05;;;7.80;99.90;;;;;;5075645;28;20117;-67
2022/04/06 05:59:31;;;;;;;19.15;6.00;;;7.80;99.90;;;;;;5078271;27;20040;-66
2022/04/06 06:01:57;;;;;;;17.55;5.85;;;7.80;99.90;;;;;;5095359;28;20039;-67
2022/04/06 06:04:22;;;;;;;16.95;5.70;;;7.80;99.90;;;;;;5091280;28;20047;-67
2022/04/06 06:06:48;;;;;;;14.77;5.78;;;7.80;99.90;;;;;;5079271;28;20039;-68
2022/04/06 06:09:14;;;;;;;15.43;5.22;;;7.80;99.90;;;;;;5109489;28;20069;-67
2022/04/06 06:11:41;;;;;;;20.60;6.28;;;7.80;99.90;;;;;;5094492;28;20425;-68
2022/04/06 06:14:06;;;;;;;14.40;5.00;;;7.90;99.90;;;;;;5090045;28;20044;-68
2022/04/06 06:16:32;;;;;;;17.60;6.38;;;8.00;99.90;;;;;;5092220;28;20105;-67
2022/04/06 06:18:58;;;;;;;11.95;5.00;;;7.90;99.90;;;;;;5095286;28;20134;-68
2022/04/06 06:21:26;;;;;;;16.70;4.88;;;8.00;99.90;;;;;;5123325;27;20039;-66
2022/04/06 06:23:53;;;;;;;13.43;5.30;;;7.90;99.90;;;;;;5096231;28;20324;-68
2022/04/06 06:26:19;;;;;;;17.35;5.75;;;7.90;99.90;;;;;;5069099;27;20044;-68
2022/04/06 06:28:45;;;;;;;12.15;5.10;;;7.90;99.90;;;;;;5086689;28;20040;-68
2022/04/06 06:31:12;;;;;;;20.95;6.93;;;7.90;99.90;;;;;;5118874;27;20386;-66
2022/04/06 06:33:37;;;;;;;16.52;4.70;;;7.90;99.90;;;;;;5090317;28;20036;-67
2022/04/06 06:36:03;;;;;;;14.02;4.68;;;7.90;99.90;;;;;;5101054;28;20028;-66
2022/04/06 06:38:28;;;;;;;14.25;5.50;;;7.90;99.90;;;;;;5068982;27;20039;-67
2022/04/06 06:40:54;;;;;;;14.30;4.38;;;7.90;99.90;;;;;;5083162;27;20038;-66
2022/04/06 06:43:20;;;;;;;17.80;4.72;;;7.90;99.90;;;;;;5103549;27;20035;-68
2022/04/06 06:45:46;;;;;;;10.02;4.30;;;7.90;99.90;;;;;;5081339;28;20031;-68
2022/04/06 06:48:11;;;;;;;12.85;4.55;;;7.90;99.90;;;;;;5096241;28;20094;-66
2022/04/06 06:50:37;;;;;;;11.30;4.55;;;7.90;99.90;;;;;;5082937;28;20132;-67
2022/04/06 06:53:03;;;;;;;14.07;4.50;;;7.90;99.90;;;;;;5080692;28;20050;-67
2022/04/06 06:55:28;;;;;;;11.68;3.95;;;7.90;99.90;;;;;;5090201;27;20035;-66
2022/04/06 06:57:54;;;;;;;14.75;4.32;;;7.80;99.90;;;;;;5089741;27;20452;-67
2022/04/06 07:00:20;;;;;;;15.38;3.90;;;7.80;99.90;;;;;;5070280;27;20080;-67
2022/04/06 07:02:45;;;;;;;13.73;3.60;;;7.90;99.90;;;;;;5102873;27;20031;-67
2022/04/06 07:05:11;;;;;;;9.30;3.53;;;7.90;99.90;;;;;;5089660;27;20050;-67
2022/04/06 07:07:54;;;;;;;15.57;3.53;;;7.90;99.90;;;;;;5100304;27;20039;-67
2022/04/06 07:10:21;;;;;;;6.03;3.20;;;7.90;99.90;;;;;;5113593;27;20043;-67
2022/04/06 07:12:47;;;;;;;9.60;3.67;;;7.90;99.90;;;;;;5098231;27;20095;-67
2022/04/06 07:15:14;;;;;;;11.85;3.35;;;7.90;99.90;;;;;;5080927;27;20039;-67
2022/04/06 07:17:39;;;;;;;11.32;3.47;;;8.00;99.90;;;;;;5090701;28;20499;-66
2022/04/06 07:20:06;;;;;;;10.40;3.38;;;8.10;99.90;;;;;;5107613;27;20070;-66
2022/04/06 07:22:31;;;;;;;12.45;4.10;;;8.10;99.90;;;;;;5090898;28;20039;-67
2022/04/06 07:24:57;;;;;;;14.23;3.83;;;8.10;99.90;;;;;;5107063;27;20036;-67
2022/04/06 07:27:22;;;;;;;20.88;4.50;;;8.10;99.90;;;;;;5087046;28;20043;-67
2022/04/06 07:29:48;;;;;;;11.10;3.70;;;8.10;99.90;;;;;;5108276;27;20049;-67
2022/04/06 07:32:13;;;;;;;14.85;4.35;;;8.20;99.90;;;;;;5065347;28;20452;-67
2022/04/06 07:34:39;;;;;;;10.13;3.38;;;8.20;99.90;;;;;;5066905;28;20124;-69
2022/04/06 07:37:05;;;;;;;11.48;3.72;;;8.20;99.90;;;;;;5074736;28;20082;-67
2022/04/06 07:39:30;;;;;;;12.35;3.78;;;8.20;99.90;;;;;;5061730;28;20112;-67
2022/04/06 07:41:56;;;;;;;17.60;4.30;;;8.20;99.90;;;;;;5059500;28;20041;-67
2022/04/06 07:44:22;;;;;;;14.15;3.75;;;8.20;99.90;;;;;;5068969;28;20032;-66
2022/04/06 07:46:48;;;;;;;20.33;4.43;;;8.30;99.90;;;;;;5080596;28;20044;-67
2022/04/06 07:49:14;;;;;;;11.80;3.83;;;8.30;99.90;;;;;;5072579;28;20032;-68
2022/04/06 07:51:40;;;;;;;13.57;4.75;;;8.30;99.90;;;;;;5066665;28;20400;-67
2022/04/06 07:54:05;;;;;;;12.52;4.25;;;8.30;99.90;;;;;;5066352;28;20040;-67
2022/04/06 07:56:31;;;;;;;11.95;4.07;;;8.30;99.90;;;;;;5066844;28;20037;-67
2022/04/06 07:58:57;;;;;;;14.48;4.60;;;8.30;99.90;;;;;;5079974;28;20133;-67
2022/04/06 08:01:22;;;;;;;11.68;3.97;;;8.40;99.90;;;;;;5074629;28;20048;-67
2022/04/06 08:03:48;;;;;;;12.35;4.07;;;8.40;99.90;;;;;;5067560;28;20047;-68
2022/04/06 08:06:13;;;;;;;14.45;4.22;;;8.40;99.90;;;;;;5078608;28;20480;-68
2022/04/06 08:08:39;;;;;;;13.18;4.65;;;8.40;99.90;;;;;;5065159;28;20036;-68
2022/04/06 08:11:05;;;;;;;16.27;4.50;;;8.30;99.90;;;;;;5065080;28;20147;-69
2022/04/06 08:13:32;;;;;;;14.30;5.20;;;8.40;99.90;;;;;;5066091;28;20032;-68
2022/04/06 08:15:58;;;;;;;12.43;4.43;;;8.40;99.90;;;;;;5067700;28;20032;-69
2022/04/06 08:18:24;;;;;;;12.70;4.63;;;8.40;99.90;;;;;;5066914;28;20039;-68
2022/04/06 08:20:50;;;;;;;20.73;5.53;;;8.40;99.90;;;;;;5067129;28;20039;-68
2022/04/06 08:23:33;;;;;;;15.13;5.32;;;8.40;99.90;;;;;;5065584;28;20040;-69
2022/04/06 08:25:59;;;;;;;14.07;4.82;;;8.40;99.90;;;;;;5065943;28;20056;-70
2022/04/06 08:28:25;;;;;;;13.32;5.30;;;8.50;99.90;;;;;;5066605;28;20033;-68
2022/04/06 08:30:50;;;;;;;23.15;6.25;;;8.50;99.90;;;;;;5055184;28;20536;-67
2022/04/06 08:33:19;;;;;;;16.25;5.80;;;8.50;99.90;;;;;;5069039;28;20425;-67
2022/04/06 08:36:06;;;;;;;13.93;5.30;;;8.40;99.90;;;;;;5079851;28;20042;-69
2022/04/06 08:38:32;;;;;;;18.02;6.30;;;8.50;99.90;;;;;;5082766;28;20043;-67
2022/04/06 08:40:58;;;;;;;12.07;5.78;;;8.50;99.90;;;;;;5097718;27;20041;-66
2022/04/06 08:43:33;;;;;;;14.20;6.80;;;8.50;99.90;;;;;;5110321;27;20128;-70
2022/04/06 08:46:04;;;;;;;17.98;6.40;;;8.50;99.90;;;;;;5081839;28;20039;-68
2022/04/06 08:48:30;;;;;;;20.85;6.47;;;8.40;99.90;;;;;;5105354;27;20040;-68
2022/04/06 08:51:00;;;;;;;14.38;5.82;;;8.40;99.90;;;;;;5101840;28;20046;-68
2022/04/06 08:53:25;;;;;;;17.30;7.15;;;8.30;99.90;;;;;;5084796;28;20028;-67
2022/04/06 08:55:51;;;;;;;15.57;6.20;;;8.40;99.90;;;;;;5103774;27;20624;-68
2022/04/06 08:58:17;;;;;;;14.05;6.85;;;8.50;99.90;;;;;;5060217;28;20135;-69
2022/04/06 09:00:42;;;;;;;15.60;6.38;;;8.50;99.90;;;;;;5065307;28;20071;-69
2022/04/06 09:03:08;;;;;;;17.00;5.97;;;8.50;99.90;;;;;;5071074;28;20130;-70
2022/04/06 09:05:34;;;;;;;14.68;6.60;;;8.50;99.90;;;;;;5061071;28;20142;-69
2022/04/06 09:08:02;;;;;;;12.07;5.03;;;8.50;99.90;;;;;;5083826;28;20047;-67
2022/04/06 09:10:36;;;;;;;17.42;5.40;;;8.50;99.90;;;;;;5086519;28;20172;-70
2022/04/06 09:13:09;;;;;;;18.33;6.05;;;8.40;99.90;;;;;;5067588;28;20043;-68
2022/04/06 09:15:34;;;;;;;17.33;5.78;;;8.40;99.90;;;;;;5077127;28;20036;-67
2022/04/06 09:18:01;;;;;;;16.35;6.00;;;8.60;99.90;;;;;;5100197;28;20476;-68
2022/04/06 09:20:26;;;;;;;12.35;5.63;;;8.70;99.90;;;;;;5100402;28;20048;-69
2022/04/06 09:22:52;;;;;;;16.15;4.80;;;8.80;99.90;;;;;;5098715;28;20032;-69
2022/04/06 09:25:21;;;;;;;14.75;5.45;;;9.00;99.90;;;;;;5099401;28;20321;-68
2022/04/06 09:27:47;;;;;;;13.18;4.18;;;9.20;99.90;;;;;;5099738;28;20033;-68
2022/04/06 09:30:13;;;;;;;13.45;4.95;;;9.30;99.90;;;;;;5098675;27;20187;-69
2022/04/06 09:32:42;;;;;;;13.40;4.60;;;9.50;99.90;;;;;;5066534;28;20472;-69
2022/04/06 09:35:27;;;;;;;9.07;4.50;;;9.70;99.90;;;;;;5066399;28;20040;-68
2022/04/06 09:38:22;;;;;;;11.20;4.40;;;9.70;99.90;;;;;;5044026;28;20135;-69
2022/04/06 09:40:49;;;;;;;9.50;4.20;;;9.80;99.80;;;;;;5044750;28;20037;-67
2022/04/06 09:43:26;;;;;;;6.65;3.53;;;9.80;99.10;;;;;;5064359;28;20044;-68
2022/04/06 09:48:56;;;;;;;9.60;3.92;;;9.70;99.90;;;;;;5068090;28;20197;-68
2022/04/06 09:51:23;;;;;;;10.75;3.42;;;9.70;99.70;;;;;;5054433;28;20153;-68
2022/04/06 09:53:50;;;;;;;9.52;3.70;;;9.70;99.90;;;;;;5065306;28;20048;-68
2022/04/06 09:56:22;;;;;;;9.57;3.75;;;9.70;99.20;;;;;;5083243;28;20682;-68
2022/04/06 09:58:48;;;;;;;11.05;4.22;;;9.80;99.90;;;;;;5058442;28;20057;-66
2022/04/06 10:01:15;;;;;;;12.15;4.20;;;9.80;97.70;;;;;;5064323;28;20117;-67
2022/04/06 10:03:47;;;;;;;16.95;4.05;;;9.70;97.80;;;;;;5064651;28;20111;-69
2022/04/06 10:06:13;;;;;;;13.75;4.13;;;9.80;99.30;;;;;;5085878;28;20036;-70
2022/04/06 10:08:39;;;;;;;12.00;4.45;;;9.90;98.30;;;;;;5074344;28;20059;-67
2022/04/06 10:11:06;;;;;;;8.73;4.05;;;10.00;97.70;;;;;;5070849;28;20079;-68
2022/04/06 10:13:32;;;;;;;13.57;4.90;;;10.20;98.50;;;;;;5081223;28;20043;-68
2022/04/06 10:15:58;;;;;;;9.75;4.80;;;10.30;97.50;;;;;;5067964;28;20476;-68
2022/04/06 10:18:30;;;;;;;14.82;5.30;;;10.30;98.20;;;;;;5062673;28;20368;-67
2022/04/06 10:21:04;;;;;;;14.45;5.07;;;10.20;97.00;;;;;;5063203;28;20119;-68
2022/04/06 10:23:44;;;;;;;7.90;4.93;;;10.10;97.30;;;;;;5065562;28;20468;-67
2022/04/06 10:26:26;;;;;;;17.90;5.63;;;10.10;97.30;;;;;;5070767;28;20111;-67
2022/04/06 10:28:51;;;;;;;11.05;5.57;;;10.10;97.40;;;;;;5056896;28;20535;-68
2022/04/06 10:31:24;;;;;;;12.20;5.35;;;10.10;98.40;;;;;;5079378;28;20123;-67
2022/04/06 10:34:11;;;;;;;13.48;5.75;;;10.10;97.50;;;;;;5092258;28;20086;-68
2022/04/06 10:36:41;;;;;;;14.70;5.60;;;10.00;97.90;;;;;;5070739;28;20047;-69
2022/04/06 10:39:07;;;;;;;15.27;5.60;;;10.10;98.60;;;;;;5087199;28;20035;-69
2022/04/06 10:41:33;;;;;;;13.55;6.00;;;10.20;99.20;;;;;;5126205;27;20056;-68
2022/04/06 10:43:59;;;;;;;14.48;5.55;;;10.20;97.00;;;;;;5074410;28;20058;-68
2022/04/06 10:46:40;;;;;;;12.82;5.95;;;10.10;97.20;;;;;;5094506;28;20062;-68
2022/04/06 10:49:06;;;;;;;13.93;7.30;;;10.10;98.20;;;;;;5099841;27;20146;-67
2022/04/06 10:51:37;;;;;;;8.30;5.60;;;10.10;98.70;;;;;;5107086;28;20135;-68
2022/04/06 10:54:11;;;;;;;14.90;5.63;;;10.10;98.00;;;;;;5092201;28;20039;-68
2022/04/06 10:56:49;;;;;;;16.23;6.90;;;10.10;97.40;;;;;;5075810;28;20138;-68
2022/04/06 10:59:20;;;;;;;14.15;6.03;;;9.90;99.90;;;;;;5094335;28;20179;-68
2022/04/06 11:01:48;;;;;;;11.95;6.53;;;9.70;99.90;;;;;;5080645;28;20035;-68
2022/04/06 11:04:20;;;;;;;16.42;6.70;;;9.60;99.90;;;;;;5100645;27;20046;-68
2022/04/06 11:06:59;;;;;;;18.63;6.30;;;9.60;99.90;;;;;;5109346;27;20097;-68
2022/04/06 11:12:31;;;;;;;15.55;6.75;;;9.60;99.90;;;;;;5090060;28;20048;-69
2022/04/06 11:14:59;;;;;;;;;;;9.60;99.90;;;;;;5093191;28;20031;-68
2022/04/06 11:17:38;;;;;;;13.60;6.90;;;9.70;99.90;;;;;;5092321;28;20023;-68
2022/04/06 11:20:10;;;;;;;18.27;6.90;;;9.80;99.90;;;;;;5094375;28;20031;-70
2022/04/06 11:22:38;;;;;;;20.83;6.82;;;9.70;99.90;;;;;;5075772;28;20055;-68
2022/04/06 11:25:09;;;;;;;13.68;7.47;;;9.50;99.90;;;;;;5124894;27;20404;-69
2022/04/06 11:27:37;;;;;;;16.80;7.28;;;9.40;99.90;;;;;;5071107;28;20040;-69
2022/04/06 11:30:14;;;;;;;15.18;7.53;;;9.50;99.90;;;;;;5091859;28;20047;-69
2022/04/06 11:32:50;;;;;;;15.63;7.38;;;9.50;99.90;;;;;;5090334;28;20055;-68
2022/04/06 11:35:16;;;;;;;15.93;7.80;;;9.40;99.90;;;;;;5088577;28;20035;-70
2022/04/06 11:37:47;;;;;;;20.23;8.48;;;9.40;99.90;;;;;;5106161;27;20046;-68
2022/04/06 11:40:14;;;;;;;13.32;7.68;;;9.40;99.90;;;;;;5089651;28;20747;-70
2022/04/06 11:42:40;;;;;;;16.13;8.60;;;9.40;99.90;;;;;;5072850;28;20055;-67
2022/04/06 11:45:07;;;;;;;18.40;9.30;;;9.50;99.90;;;;;;5075416;28;20036;-67
2022/04/06 11:47:38;;;;;;;14.55;8.45;;;9.60;99.90;;;;;;5090779;28;20043;-67
2022/04/06 11:50:06;;;;;;;23.00;7.95;;;9.60;99.90;;;;;;5072516;28;20040;-69
2022/04/06 11:52:32;;;;;;;16.40;8.63;;;9.90;99.90;;;;;;5089296;27;20146;-70
2022/04/06 11:54:58;;;;;;;17.25;8.45;;;10.00;99.90;;;;;;5090732;28;20085;-69
2022/04/06 11:57:39;;;;;;;20.70;8.60;;;9.90;99.90;;;;;;5073096;28;20035;-70
2022/04/06 12:00:09;;;;;;;14.85;7.78;;;9.70;99.90;;;;;;5095499;28;20069;-69
2022/04/06 12:02:55;;;;;;;16.33;7.32;;;9.70;99.90;;;;;;5091616;27;20097;-70
2022/04/06 12:05:22;;;;;;;15.93;7.63;;;9.70;99.90;;;;;;5098428;27;20047;-68
2022/04/06 12:07:48;;;;;;;15.95;7.20;;;9.70;99.90;;;;;;5087099;28;20088;-69
2022/04/06 12:10:15;;;;;;;17.88;8.48;;;9.60;99.90;;;;;;5092712;28;20031;-69
2022/04/06 12:12:41;;;;;;;16.00;7.38;;;9.60;99.90;;;;;;5098050;27;20131;-68
2022/04/06 12:15:08;;;;;;;13.98;7.85;;;9.60;99.90;;;;;;5096463;28;20130;-69
2022/04/06 12:17:35;;;;;;;18.67;8.80;;;9.70;99.90;;;;;;5081719;28;20150;-68
2022/04/06 12:20:19;;;;;;;14.75;7.20;;;9.90;99.90;;;;;;5074270;28;20155;-69
2022/04/06 12:22:45;;;;;;;17.80;7.18;;;9.90;99.90;;;;;;5089338;28;20113;-69
2022/04/06 12:25:28;;;;;;;17.52;7.32;;;10.00;99.90;;;;;;5085371;28;20043;-70
2022/04/06 12:28:09;;;;;;;16.25;7.63;;;10.00;99.90;;;;;;5090026;28;20067;-69
2022/04/06 12:30:34;;;;;;;14.30;7.03;;;10.00;99.90;;;;;;5110718;27;20761;-69
2022/04/06 12:33:00;;;;;;;21.90;7.40;;;10.00;99.90;;;;;;5087946;28;20051;-69
2022/04/06 12:35:25;;;;;;;15.55;7.47;;;10.00;99.90;;;;;;5096864;27;20042;-69
2022/04/06 12:37:51;;;;;;;12.80;6.82;;;10.10;99.90;;;;;;5090481;28;20039;-69
2022/04/06 12:40:23;;;;;;;15.90;7.55;;;10.30;99.90;;;;;;5085830;28;20044;-69
2022/04/06 12:42:49;;;;;;;12.48;6.70;;;10.40;99.90;;;;;;5089697;28;20050;-69
2022/04/06 12:45:15;;;;;;;17.33;7.65;;;10.60;99.90;;;;;;5100605;28;20043;-69
2022/04/06 12:47:41;;;;;;;16.60;7.30;;;10.90;99.90;;;;;;5088298;28;20118;-69
2022/04/06 12:50:09;;;;;;;13.30;7.65;;;10.90;99.90;;;;;;5102503;27;20504;-69
2022/04/06 12:52:37;;;;;;;16.80;7.65;;;11.10;99.90;;;;;;5075219;28;20075;-69
2022/04/06 12:55:10;;;;;;;15.25;6.55;;;11.20;99.90;;;;;;5090158;28;20697;-69